createdAt,value
2023-03-16T00:00:40.748Z,13.77
2023-03-16T00:03:09.051Z,13.73
2023-03-16T00:05:37.309Z,13.60
2023-03-16T00:08:06.091Z,12.47
2023-03-16T00:10:34.657Z,13.47
2023-03-16T00:13:02.970Z,14.03
2023-03-16T00:15:31.300Z,13.77
2023-03-16T00:18:01.129Z,13.63
2023-03-16T00:20:29.481Z,14.10
2023-03-16T00:22:57.792Z,14.17
2023-03-16T00:25:26.352Z,12.53
2023-03-16T00:27:54.715Z,12.10
2023-03-16T00:30:23.073Z,12.43
2023-03-16T00:32:54.094Z,12.53
2023-03-16T00:35:23.881Z,12.37
2023-03-16T00:37:52.296Z,11.97
2023-03-16T00:40:20.866Z,12.57
2023-03-16T00:42:49.154Z,11.30
2023-03-16T00:45:17.710Z,12.07
2023-03-16T00:47:46.004Z,12.90
2023-03-16T00:50:14.342Z,12.60
2023-03-16T00:52:43.980Z,11.90
2023-03-16T00:55:12.420Z,12.43
2023-03-16T00:57:41.572Z,12.50
2023-03-16T01:00:13.159Z,10.97
2023-03-16T01:02:41.534Z,11.80
2023-03-16T01:05:10.918Z,12.00
2023-03-16T01:07:39.380Z,11.53
2023-03-16T01:10:10.821Z,12.00
2023-03-16T01:12:39.181Z,11.70
2023-03-16T01:15:08.851Z,11.07
2023-03-16T01:17:37.175Z,11.90
2023-03-16T01:20:12.129Z,11.60
2023-03-16T01:22:40.516Z,11.30
2023-03-16T01:25:12.484Z,12.50
2023-03-16T01:27:40.845Z,10.70
2023-03-16T01:30:12.455Z,10.77
2023-03-16T01:32:41.761Z,11.40
2023-03-16T01:35:10.533Z,12.63
2023-03-16T01:37:39.104Z,12.13
2023-03-16T01:40:12.424Z,11.40
2023-03-16T01:42:48.122Z,10.67
2023-03-16T01:45:53.990Z,11.83
2023-03-16T01:48:24.865Z,10.80
2023-03-16T01:50:54.587Z,11.50
2023-03-16T01:53:24.263Z,11.03
2023-03-16T01:55:55.430Z,10.80
2023-03-16T01:58:24.238Z,10.63
2023-03-16T02:00:52.713Z,11.10
2023-03-16T02:03:22.771Z,10.20
2023-03-16T02:05:55.623Z,10.90
2023-03-16T02:08:25.090Z,10.97
2023-03-16T02:10:56.821Z,11.53
2023-03-16T02:13:26.326Z,10.90
2023-03-16T02:15:54.826Z,11.23
2023-03-16T02:18:23.781Z,11.03
2023-03-16T02:20:58.411Z,10.90
2023-03-16T02:23:27.396Z,11.23
2023-03-16T02:26:03.550Z,10.63
2023-03-16T02:28:38.538Z,10.73
2023-03-16T02:31:08.805Z,10.73
2023-03-16T02:33:37.728Z,9.50
2023-03-16T02:36:06.578Z,10.00
2023-03-16T02:38:34.900Z,9.70
2023-03-16T02:41:12.976Z,8.57
2023-03-16T02:43:45.036Z,9.13
2023-03-16T02:46:16.251Z,9.40
2023-03-16T02:48:50.464Z,8.83
2023-03-16T02:51:18.779Z,9.17
2023-03-16T02:53:47.153Z,8.03
2023-03-16T02:56:15.503Z,7.53
2023-03-16T02:58:43.821Z,8.43
2023-03-16T03:01:12.120Z,7.60
2023-03-16T03:03:41.987Z,7.67
2023-03-16T03:06:10.277Z,8.70
2023-03-16T03:08:38.808Z,8.03
2023-03-16T03:11:07.264Z,7.90
2023-03-16T03:13:38.274Z,8.00
2023-03-16T03:16:07.246Z,8.37
2023-03-16T03:18:35.616Z,7.57
2023-03-16T03:21:05.582Z,8.83
2023-03-16T03:23:35.034Z,7.40
2023-03-16T03:26:04.361Z,7.20
2023-03-16T03:28:34.260Z,7.40
2023-03-16T03:31:02.847Z,7.37
2023-03-16T03:33:33.731Z,6.60
2023-03-16T03:36:02.347Z,6.50
2023-03-16T03:38:32.118Z,6.57
2023-03-16T03:41:00.616Z,6.63
2023-03-16T03:43:28.904Z,6.03
2023-03-16T03:45:59.025Z,6.20
2023-03-16T03:48:27.919Z,6.17
2023-03-16T03:50:56.262Z,5.43
2023-03-16T03:53:24.787Z,6.50
2023-03-16T03:55:54.564Z,6.37
2023-03-16T03:58:23.389Z,5.70
2023-03-16T04:00:52.791Z,4.90
2023-03-16T04:03:21.935Z,4.77
2023-03-16T04:05:50.351Z,4.13
2023-03-16T04:08:18.952Z,5.30
2023-03-16T04:10:48.246Z,4.67
2023-03-16T04:13:17.878Z,4.90
2023-03-16T04:15:47.020Z,5.10
2023-03-16T04:18:15.368Z,4.33
2023-03-16T04:20:43.625Z,4.57
2023-03-16T04:23:11.916Z,4.73
2023-03-16T04:25:40.198Z,5.07
2023-03-16T04:28:08.597Z,3.93
2023-03-16T04:30:38.526Z,3.97
2023-03-16T04:33:06.915Z,3.97
2023-03-16T04:35:35.225Z,4.13
2023-03-16T04:38:03.568Z,3.43
2023-03-16T04:40:31.920Z,3.67
2023-03-16T04:43:00.274Z,3.37
2023-03-16T04:45:28.636Z,3.33
2023-03-16T04:47:58.290Z,3.67
2023-03-16T04:50:26.913Z,3.57
2023-03-16T04:52:55.468Z,3.10
2023-03-16T04:55:24.050Z,3.10
2023-03-16T04:57:52.548Z,3.00
2023-03-16T05:00:23.373Z,3.30
2023-03-16T05:02:52.910Z,2.57
2023-03-16T05:05:22.832Z,3.37
2023-03-16T05:07:51.472Z,3.33
2023-03-16T05:10:20.356Z,2.80
2023-03-16T05:12:48.683Z,2.87
2023-03-16T05:15:17.033Z,2.73
2023-03-16T05:17:46.741Z,2.60
2023-03-16T05:20:16.492Z,2.03
2023-03-16T05:22:48.236Z,2.97
2023-03-16T05:25:17.592Z,2.57
2023-03-16T05:27:47.341Z,2.80
2023-03-16T05:30:17.642Z,2.87
2023-03-16T05:32:46.729Z,2.50
2023-03-16T05:35:15.604Z,2.60
2023-03-16T05:37:45.865Z,2.30
2023-03-16T05:40:18.155Z,2.37
2023-03-16T05:42:50.874Z,2.20
2023-03-16T05:45:19.635Z,2.20
2023-03-16T05:47:48.145Z,2.30
2023-03-16T05:50:18.050Z,2.00
2023-03-16T05:52:48.582Z,2.30
2023-03-16T05:55:18.639Z,2.20
2023-03-16T05:57:47.012Z,2.10
2023-03-16T06:00:18.280Z,2.27
2023-03-16T06:02:48.515Z,3.30
2023-03-16T06:05:17.462Z,2.00
2023-03-16T06:07:47.176Z,1.70
2023-03-16T06:10:15.725Z,1.87
2023-03-16T06:12:44.043Z,2.07
2023-03-16T06:15:13.251Z,1.70
2023-03-16T06:17:42.156Z,1.80
2023-03-16T06:20:13.181Z,2.10
2023-03-16T06:22:42.826Z,1.83
2023-03-16T06:25:14.598Z,1.63
2023-03-16T06:27:43.484Z,1.73
2023-03-16T06:30:14.281Z,1.53
2023-03-16T06:32:43.300Z,1.87
2023-03-16T06:35:12.178Z,1.63
2023-03-16T06:37:40.614Z,2.00
2023-03-16T06:40:10.965Z,1.63
2023-03-16T06:42:40.765Z,1.77
2023-03-16T06:45:10.461Z,1.80
2023-03-16T06:47:38.764Z,1.80
2023-03-16T06:50:09.016Z,2.10
2023-03-16T06:52:37.459Z,1.97
2023-03-16T06:55:06.766Z,1.80
2023-03-16T06:57:35.136Z,1.43
2023-03-16T07:00:05.569Z,1.53
2023-03-16T07:02:35.782Z,1.70
2023-03-16T07:05:04.124Z,1.60
2023-03-16T07:07:32.521Z,1.83
2023-03-16T07:10:01.839Z,1.77
2023-03-16T07:12:30.148Z,1.83
2023-03-16T07:14:58.526Z,2.00
2023-03-16T07:17:28.266Z,1.43
2023-03-16T07:19:56.554Z,1.83
2023-03-16T07:22:24.918Z,1.70
2023-03-16T07:24:57.393Z,2.30
2023-03-16T07:27:26.014Z,2.30
2023-03-16T07:29:54.381Z,1.63
2023-03-16T07:32:23.472Z,1.60
2023-03-16T07:34:53.589Z,1.80
2023-03-16T07:37:25.405Z,1.70
2023-03-16T07:39:54.013Z,1.70
2023-03-16T07:42:22.806Z,2.67
2023-03-16T07:44:52.081Z,2.30
2023-03-16T07:47:21.188Z,1.77
2023-03-16T07:49:49.637Z,1.90
2023-03-16T07:52:19.438Z,2.23
2023-03-16T07:54:48.886Z,2.47
2023-03-16T07:57:23.821Z,2.40
2023-03-16T08:00:01.021Z,2.00
2023-03-16T08:02:29.407Z,1.93
2023-03-16T08:04:57.866Z,1.83
2023-03-16T08:07:27.606Z,1.47
2023-03-16T08:09:55.888Z,2.20
2023-03-16T08:12:24.262Z,1.47
2023-03-16T08:14:52.585Z,1.70
2023-03-16T08:17:21.736Z,1.60
2023-03-16T08:19:50.005Z,1.70
2023-03-16T08:22:19.117Z,2.50
2023-03-16T08:24:49.124Z,2.10
2023-03-16T08:27:19.757Z,1.80
2023-03-16T08:29:48.186Z,1.87
2023-03-16T08:32:16.457Z,1.40
2023-03-16T08:34:46.012Z,2.13
2023-03-16T08:37:14.868Z,2.10
2023-03-16T08:39:43.820Z,2.53
2023-03-16T08:42:15.320Z,2.50
2023-03-16T08:44:44.053Z,1.67
2023-03-16T08:47:14.349Z,1.93
2023-03-16T08:49:42.797Z,1.90
2023-03-16T08:52:13.081Z,1.80
2023-03-16T08:54:47.160Z,2.20
2023-03-16T08:57:22.742Z,2.23
2023-03-16T09:00:00.110Z,1.90
2023-03-16T09:02:28.817Z,2.70
2023-03-16T09:04:57.146Z,2.33
2023-03-16T09:07:26.194Z,2.20
2023-03-16T09:09:54.605Z,1.80
2023-03-16T09:12:24.365Z,1.70
2023-03-16T09:14:54.339Z,2.07
2023-03-16T09:17:22.605Z,2.13
2023-03-16T09:19:53.180Z,2.37
2023-03-16T09:22:23.226Z,2.20
2023-03-16T09:24:51.729Z,2.60
2023-03-16T09:27:21.002Z,2.90
2023-03-16T09:29:53.163Z,2.80
2023-03-16T09:32:21.786Z,1.90
2023-03-16T09:34:50.747Z,2.40
2023-03-16T09:37:19.046Z,2.40
2023-03-16T09:39:47.668Z,2.30
2023-03-16T09:42:20.956Z,2.60
2023-03-16T09:45:00.805Z,2.70
2023-03-16T09:47:31.620Z,2.30
2023-03-16T09:50:03.445Z,2.50
2023-03-16T09:52:41.715Z,2.33
2023-03-16T09:55:20.924Z,2.47
2023-03-16T09:57:52.368Z,2.27
2023-03-16T10:00:25.520Z,3.07
2023-03-16T10:03:19.037Z,2.73
2023-03-16T10:05:49.214Z,3.27
2023-03-16T10:08:22.426Z,3.07
2023-03-16T10:11:06.986Z,3.73
2023-03-16T10:13:42.628Z,3.57
2023-03-16T10:16:17.435Z,3.30
2023-03-16T10:18:47.901Z,2.53
2023-03-16T10:21:18.420Z,2.70
2023-03-16T10:23:48.702Z,3.00
2023-03-16T10:26:23.002Z,2.57
2023-03-16T10:28:53.093Z,2.80
2023-03-16T10:31:25.038Z,2.97
2023-03-16T10:33:58.844Z,3.03
2023-03-16T10:36:33.671Z,2.60
2023-03-16T10:39:05.031Z,3.10
2023-03-16T10:41:36.779Z,3.37
2023-03-16T10:44:12.325Z,3.17
2023-03-16T10:46:46.033Z,3.17
2023-03-16T10:49:25.911Z,3.30
2023-03-16T10:51:55.536Z,2.53
2023-03-16T10:54:30.578Z,3.77
2023-03-16T10:56:59.192Z,3.50
2023-03-16T10:59:32.136Z,3.40
2023-03-16T11:02:03.751Z,3.40
2023-03-16T11:04:34.959Z,3.47
2023-03-16T11:07:03.428Z,4.20
2023-03-16T11:09:35.084Z,4.00
2023-03-16T11:12:15.559Z,4.00
2023-03-16T11:14:46.808Z,3.93
2023-03-16T11:17:20.307Z,2.77
2023-03-16T11:19:54.540Z,3.70
2023-03-16T11:22:26.451Z,3.58
2023-03-16T11:25:14.017Z,4.30
2023-03-16T11:27:47.404Z,3.83
2023-03-16T11:30:25.097Z,2.90
2023-03-16T11:32:55.177Z,3.50
2023-03-16T11:35:30.913Z,4.13
2023-03-16T11:38:12.063Z,3.63
2023-03-16T11:40:50.105Z,3.53
2023-03-16T11:44:00.168Z,4.37
2023-03-16T11:46:32.823Z,3.50
2023-03-16T11:49:15.853Z,4.10
2023-03-16T11:51:49.920Z,3.63
2023-03-16T11:54:46.174Z,3.80
2023-03-16T11:57:32.810Z,3.60
2023-03-16T12:00:17.032Z,3.70
2023-03-16T12:03:03.694Z,3.70
2023-03-16T12:05:49.354Z,3.80
2023-03-16T12:08:43.467Z,3.50
2023-03-16T12:11:14.874Z,3.97
2023-03-16T12:14:00.477Z,3.50
2023-03-16T12:16:48.351Z,3.80
2023-03-16T12:19:24.917Z,3.07
2023-03-16T12:22:04.896Z,3.97
2023-03-16T12:24:42.573Z,3.03
2023-03-16T12:27:17.717Z,3.50
2023-03-16T12:29:59.492Z,3.53
2023-03-16T12:32:38.553Z,3.50
2023-03-16T12:35:23.264Z,3.43
2023-03-16T12:38:08.586Z,3.50
2023-03-16T12:40:47.344Z,3.70
2023-03-16T12:43:37.004Z,2.80
2023-03-16T12:46:10.282Z,3.20
2023-03-16T12:48:42.402Z,3.87
2023-03-16T12:51:10.969Z,3.23
2023-03-16T12:53:46.842Z,3.63
2023-03-16T12:56:17.852Z,3.03
2023-03-16T12:58:48.667Z,3.37
2023-03-16T13:01:20.021Z,3.17
2023-03-16T13:03:51.045Z,3.60
2023-03-16T13:06:23.028Z,3.80
2023-03-16T13:08:57.988Z,4.00
2023-03-16T13:11:27.178Z,3.80
2023-03-16T13:14:12.892Z,3.40
2023-03-16T13:16:41.915Z,3.70
2023-03-16T13:19:27.383Z,3.90
2023-03-16T13:22:04.466Z,3.83
2023-03-16T13:24:41.227Z,3.60
2023-03-16T13:27:22.451Z,3.07
2023-03-16T13:29:56.194Z,3.07
2023-03-16T13:32:28.704Z,3.50
2023-03-16T13:35:00.734Z,3.60
2023-03-16T13:37:30.789Z,3.93
2023-03-16T13:40:04.551Z,4.17
2023-03-16T13:42:34.637Z,4.00
2023-03-16T13:45:15.527Z,3.80
2023-03-16T13:47:44.687Z,3.57
2023-03-16T13:50:16.165Z,3.70
2023-03-16T13:52:46.000Z,3.38
2023-03-16T13:55:20.117Z,4.30
2023-03-16T13:57:50.194Z,4.13
2023-03-16T14:00:21.895Z,3.80
2023-03-16T14:02:54.299Z,4.43
2023-03-16T14:05:24.684Z,3.83
2023-03-16T14:07:54.764Z,5.00
2023-03-16T14:10:25.620Z,4.43
2023-03-16T14:12:55.229Z,4.60
2023-03-16T14:15:26.884Z,4.90
2023-03-16T14:17:56.876Z,5.87
2023-03-16T14:20:26.627Z,5.63
2023-03-16T14:22:55.415Z,5.60
2023-03-16T14:25:28.654Z,4.57
2023-03-16T14:28:01.635Z,4.63
2023-03-16T14:30:32.187Z,4.87
2023-03-16T14:33:02.359Z,4.80
2023-03-16T14:35:32.476Z,5.40
2023-03-16T14:38:22.514Z,5.80
2023-03-16T14:40:57.616Z,5.57
2023-03-16T14:43:31.057Z,5.43
2023-03-16T14:45:59.816Z,5.23
2023-03-16T14:48:30.329Z,4.57
2023-03-16T14:51:01.699Z,5.63
2023-03-16T14:53:33.873Z,5.47
2023-03-16T14:56:03.948Z,4.80
2023-03-16T14:58:34.163Z,5.10
2023-03-16T15:01:02.513Z,4.97
2023-03-16T15:03:34.589Z,4.47
2023-03-16T15:06:03.887Z,4.87
2023-03-16T15:08:37.155Z,4.90
2023-03-16T15:11:08.679Z,5.80
2023-03-16T15:13:53.245Z,5.60
2023-03-16T15:16:23.217Z,4.73
2023-03-16T15:18:52.042Z,4.90
2023-03-16T15:21:24.289Z,5.00
2023-03-16T15:23:52.775Z,4.37
2023-03-16T15:26:27.341Z,5.17
2023-03-16T15:28:56.144Z,4.70
2023-03-16T15:31:25.074Z,5.23
2023-03-16T15:33:53.528Z,5.13
2023-03-16T15:36:24.335Z,5.00
2023-03-16T15:38:54.892Z,5.13
2023-03-16T15:41:28.345Z,5.50
2023-03-16T15:44:01.001Z,4.87
2023-03-16T15:46:29.566Z,6.00
2023-03-16T15:48:57.952Z,5.20
2023-03-16T15:51:29.078Z,4.60
2023-03-16T15:54:00.532Z,5.13
2023-03-16T15:56:38.769Z,4.90
2023-03-16T15:59:18.195Z,4.97
2023-03-16T16:01:48.550Z,5.27
2023-03-16T16:04:19.967Z,4.50
2023-03-16T16:06:49.413Z,4.90
2023-03-16T16:09:17.800Z,4.73
2023-03-16T16:11:49.117Z,4.70
2023-03-16T16:14:21.295Z,4.67
2023-03-16T16:16:50.442Z,4.57
2023-03-16T16:19:19.453Z,4.77
2023-03-16T16:21:48.042Z,4.53
2023-03-16T16:24:18.295Z,5.13
2023-03-16T16:26:55.523Z,5.00
2023-03-16T16:29:27.360Z,4.30
2023-03-16T16:31:55.867Z,5.30
2023-03-16T16:34:25.913Z,4.63
2023-03-16T16:36:55.196Z,4.73
2023-03-16T16:39:23.709Z,4.83
2023-03-16T16:41:56.511Z,5.03
2023-03-16T16:44:28.352Z,4.90
2023-03-16T16:46:57.511Z,5.50
2023-03-16T16:49:28.120Z,5.43
2023-03-16T16:51:56.615Z,5.37
2023-03-16T16:54:27.187Z,6.90
2023-03-16T16:56:58.328Z,7.00
2023-03-16T16:59:30.241Z,8.80
2023-03-16T17:01:58.659Z,8.57
2023-03-16T17:04:29.554Z,7.37
2023-03-16T17:07:00.908Z,8.50
2023-03-16T17:09:30.318Z,8.02
2023-03-16T17:12:01.594Z,8.40
2023-03-16T17:14:31.549Z,8.40
2023-03-16T17:17:05.193Z,8.70
2023-03-16T17:19:33.584Z,9.10
2023-03-16T17:22:01.875Z,8.63
2023-03-16T17:24:31.349Z,8.77
2023-03-16T17:27:04.672Z,8.90
2023-03-16T17:29:34.291Z,9.80
2023-03-16T17:32:04.209Z,9.37
2023-03-16T17:34:35.398Z,8.97
2023-03-16T17:37:03.720Z,10.37
2023-03-16T17:39:33.957Z,8.73
2023-03-16T17:42:06.127Z,8.80
2023-03-16T17:44:36.210Z,10.60
2023-03-16T17:47:04.970Z,9.37
2023-03-16T17:49:33.895Z,8.30
2023-03-16T17:52:02.986Z,9.30
2023-03-16T17:54:31.656Z,7.73
2023-03-16T17:57:00.004Z,7.63
2023-03-16T17:59:29.666Z,6.97
2023-03-16T18:01:58.024Z,8.47
2023-03-16T18:04:27.814Z,9.10
2023-03-16T18:06:56.071Z,9.30
2023-03-16T18:09:24.393Z,7.33
2023-03-16T18:11:53.069Z,8.07
2023-03-16T18:14:26.554Z,7.77
2023-03-16T18:16:56.295Z,8.40
2023-03-16T18:19:26.385Z,7.40
2023-03-16T18:21:54.764Z,7.87
2023-03-16T18:24:26.686Z,8.03
2023-03-16T18:26:55.408Z,9.27
2023-03-16T18:29:24.134Z,8.87
2023-03-16T18:31:59.372Z,8.97
2023-03-16T18:34:33.695Z,8.50
2023-03-16T18:37:06.254Z,9.30
2023-03-16T18:39:34.904Z,8.47
2023-03-16T18:42:03.841Z,7.87
2023-03-16T18:44:32.982Z,7.20
2023-03-16T18:47:04.883Z,7.47
2023-03-16T18:49:35.598Z,7.97
2023-03-16T18:52:04.435Z,7.87
2023-03-16T18:54:36.266Z,7.37
2023-03-16T18:57:05.730Z,7.90
2023-03-16T18:59:34.073Z,6.83
2023-03-16T19:02:04.049Z,6.67
2023-03-16T19:04:32.967Z,6.20
2023-03-16T19:07:01.562Z,6.63
2023-03-16T19:09:31.951Z,6.57
2023-03-16T19:12:00.859Z,6.73
2023-03-16T19:14:33.129Z,7.80
2023-03-16T19:17:01.807Z,7.90
2023-03-16T19:19:31.536Z,9.67
2023-03-16T19:22:06.777Z,8.63
2023-03-16T19:24:37.448Z,9.17
2023-03-16T19:27:08.712Z,9.23
2023-03-16T19:29:37.143Z,8.03
2023-03-16T19:32:05.712Z,9.53
2023-03-16T19:34:35.764Z,9.13
2023-03-16T19:37:04.037Z,9.47
2023-03-16T19:39:32.344Z,10.00
2023-03-16T19:42:01.097Z,11.23
2023-03-16T19:44:30.197Z,10.67
2023-03-16T19:47:00.172Z,10.70
2023-03-16T19:49:29.506Z,9.57
2023-03-16T19:51:59.270Z,9.73
2023-03-16T19:54:29.314Z,10.97
2023-03-16T19:57:00.599Z,10.73
2023-03-16T19:59:33.615Z,9.80
2023-03-16T20:02:02.342Z,12.03
2023-03-16T20:04:31.477Z,11.90
2023-03-16T20:07:01.236Z,11.60
2023-03-16T20:09:29.543Z,11.07
2023-03-16T20:11:57.868Z,10.97
2023-03-16T20:14:33.516Z,10.67
2023-03-16T20:17:02.124Z,10.57
2023-03-16T20:19:30.571Z,11.03
2023-03-16T20:22:00.654Z,11.87
2023-03-16T20:24:29.030Z,11.30
2023-03-16T20:26:57.429Z,10.03
2023-03-16T20:29:31.180Z,10.00
2023-03-16T20:31:59.870Z,10.03
2023-03-16T20:34:30.030Z,10.43
2023-03-16T20:37:00.821Z,11.37
2023-03-16T20:39:29.148Z,10.10
2023-03-16T20:41:58.479Z,10.43
2023-03-16T20:44:29.556Z,10.37
2023-03-16T20:46:57.863Z,10.27
2023-03-16T20:49:32.459Z,11.03
2023-03-16T20:52:02.157Z,11.00
2023-03-16T20:54:30.462Z,10.53
2023-03-16T20:56:58.849Z,9.67
2023-03-16T20:59:30.159Z,9.57
2023-03-16T21:01:58.547Z,10.47
2023-03-16T21:04:28.865Z,10.27
2023-03-16T21:06:57.692Z,10.20
2023-03-16T21:09:27.840Z,10.70
2023-03-16T21:11:56.548Z,8.97
2023-03-16T21:14:26.367Z,9.17
2023-03-16T21:16:55.726Z,9.23
2023-03-16T21:19:25.373Z,10.00
2023-03-16T21:21:53.685Z,10.53
2023-03-16T21:24:22.660Z,10.07
2023-03-16T21:26:52.378Z,9.90
2023-03-16T21:29:23.860Z,10.37
2023-03-16T21:31:52.717Z,10.07
2023-03-16T21:34:25.365Z,9.93
2023-03-16T21:36:53.758Z,9.67
2023-03-16T21:39:25.214Z,9.23
2023-03-16T21:41:55.073Z,9.43
2023-03-16T21:44:23.403Z,9.67
2023-03-16T21:46:51.919Z,9.40
2023-03-16T21:49:20.344Z,8.70
2023-03-16T21:51:50.026Z,9.30
2023-03-16T21:54:19.355Z,8.97
2023-03-16T21:56:48.973Z,11.00
2023-03-16T21:59:18.781Z,9.37
2023-03-16T22:02:01.072Z,9.37
2023-03-16T22:04:30.366Z,9.47
2023-03-16T22:06:58.616Z,9.30
2023-03-16T22:09:30.266Z,9.77
2023-03-16T22:11:58.854Z,9.77
2023-03-16T22:14:28.768Z,8.77
2023-03-16T22:16:57.595Z,9.97
2023-03-16T22:19:27.470Z,9.47
2023-03-16T22:21:56.646Z,7.90
2023-03-16T22:24:28.004Z,9.17
2023-03-16T22:26:56.695Z,8.07
2023-03-16T22:29:28.081Z,8.67
2023-03-16T22:31:59.747Z,8.27
2023-03-16T22:34:32.291Z,8.50
2023-03-16T22:37:01.832Z,8.53
2023-03-16T22:39:36.210Z,8.93
2023-03-16T22:42:04.957Z,8.53
2023-03-16T22:44:33.345Z,8.67
2023-03-16T22:47:02.967Z,7.77
2023-03-16T22:49:31.284Z,8.00
2023-03-16T22:51:59.709Z,7.93
2023-03-16T22:54:30.942Z,7.13
2023-03-16T22:56:59.234Z,7.53
2023-03-16T22:59:28.735Z,7.37
2023-03-16T23:01:57.289Z,8.15
2023-03-16T23:04:32.802Z,8.13
2023-03-16T23:07:01.229Z,6.87
2023-03-16T23:09:29.806Z,6.50
2023-03-16T23:11:59.585Z,7.37
2023-03-16T23:14:32.198Z,6.40
2023-03-16T23:17:01.018Z,7.40
2023-03-16T23:19:32.961Z,6.70
2023-03-16T23:22:03.453Z,6.60
2023-03-16T23:24:31.809Z,6.47
2023-03-16T23:27:00.702Z,7.00
2023-03-16T23:29:29.939Z,7.30
2023-03-16T23:31:58.414Z,6.83
2023-03-16T23:34:27.571Z,7.23
2023-03-16T23:36:57.231Z,8.47
2023-03-16T23:39:26.142Z,8.17
2023-03-16T23:41:55.389Z,8.33
2023-03-16T23:44:27.451Z,8.03
2023-03-16T23:46:56.118Z,8.27
2023-03-16T23:49:27.441Z,7.30
2023-03-16T23:51:58.972Z,7.57
2023-03-16T23:54:30.031Z,7.47
2023-03-16T23:56:58.460Z,7.10
2023-03-16T23:59:27.853Z,7.23
